sensor_id;sensor_type;location;lat;lon;timestamp;temperature;humidity
17170;DHT22;8700;48.222;16.342;2023-07-28T00:00:16;22.40;82.20
17170;DHT22;8700;48.222;16.342;2023-07-28T00:03:39;22.50;82.60
17170;DHT22;8700;48.222;16.342;2023-07-28T00:07:00;22.60;82.60
17170;DHT22;8700;48.222;16.342;2023-07-28T00:19:32;22.60;84.20
17170;DHT22;8700;48.222;16.342;2023-07-28T00:22:53;22.70;84.60
17170;DHT22;8700;48.222;16.342;2023-07-28T00:26:14;22.80;84.60
17170;DHT22;8700;48.222;16.342;2023-07-28T00:29:36;22.90;84.60
17170;DHT22;8700;48.222;16.342;2023-07-28T00:32:57;22.90;85.00
17170;DHT22;8700;48.222;16.342;2023-07-28T00:36:20;22.90;85.50
17170;DHT22;8700;48.222;16.342;2023-07-28T00:39:41;22.70;86.00
17170;DHT22;8700;48.222;16.342;2023-07-28T00:43:02;22.90;86.30
17170;DHT22;8700;48.222;16.342;2023-07-28T00:46:24;22.70;86.90
17170;DHT22;8700;48.222;16.342;2023-07-28T00:49:45;22.70;87.80
17170;DHT22;8700;48.222;16.342;2023-07-28T00:53:08;22.60;88.70
17170;DHT22;8700;48.222;16.342;2023-07-28T00:56:29;22.50;89.80
17170;DHT22;8700;48.222;16.342;2023-07-28T00:59:51;22.40;90.50
17170;DHT22;8700;48.222;16.342;2023-07-28T01:03:12;22.30;90.90
17170;DHT22;8700;48.222;16.342;2023-07-28T01:06:40;22.30;91.80
17170;DHT22;8700;48.222;16.342;2023-07-28T01:10:11;22.40;92.10
17170;DHT22;8700;48.222;16.342;2023-07-28T01:13:33;22.50;92.80
17170;DHT22;8700;48.222;16.342;2023-07-28T01:16:55;22.50;93.50
17170;DHT22;8700;48.222;16.342;2023-07-28T01:20:16;22.50;94.60
17170;DHT22;8700;48.222;16.342;2023-07-28T01:23:43;22.40;96.00
17170;DHT22;8700;48.222;16.342;2023-07-28T01:27:06;22.30;97.20
17170;DHT22;8700;48.222;16.342;2023-07-28T01:30:28;22.30;98.50
17170;DHT22;8700;48.222;16.342;2023-07-28T01:33:49;22.30;99.90
17170;DHT22;8700;48.222;16.342;2023-07-28T01:37:11;22.30;99.90
17170;DHT22;8700;48.222;16.342;2023-07-28T01:40:33;22.40;99.90
17170;DHT22;8700;48.222;16.342;2023-07-28T01:43:58;22.40;99.90
17170;DHT22;8700;48.222;16.342;2023-07-28T01:47:19;22.50;99.90
17170;DHT22;8700;48.222;16.342;2023-07-28T01:50:41;22.50;99.90
17170;DHT22;8700;48.222;16.342;2023-07-28T01:54:02;22.60;99.90
17170;DHT22;8700;48.222;16.342;2023-07-28T01:57:23;22.60;99.90
17170;DHT22;8700;48.222;16.342;2023-07-28T02:00:48;22.50;99.90
17170;DHT22;8700;48.222;16.342;2023-07-28T02:04:09;22.40;99.90
17170;DHT22;8700;48.222;16.342;2023-07-28T02:07:30;22.40;99.90
17170;DHT22;8700;48.222;16.342;2023-07-28T02:10:53;22.50;99.90
17170;DHT22;8700;48.222;16.342;2023-07-28T02:14:14;22.40;99.90
17170;DHT22;8700;48.222;16.342;2023-07-28T02:17:37;22.30;99.90
17170;DHT22;8700;48.222;16.342;2023-07-28T02:20:58;22.30;99.90
17170;DHT22;8700;48.222;16.342;2023-07-28T02:24:19;22.30;99.90
17170;DHT22;8700;48.222;16.342;2023-07-28T02:27:40;22.30;99.90
17170;DHT22;8700;48.222;16.342;2023-07-28T02:35:38;22.30;99.90
17170;DHT22;8700;48.222;16.342;2023-07-28T02:38:59;22.30;99.90
17170;DHT22;8700;48.222;16.342;2023-07-28T02:42:20;22.30;99.90
17170;DHT22;8700;48.222;16.342;2023-07-28T02:45:46;22.30;99.90
17170;DHT22;8700;48.222;16.342;2023-07-28T02:49:08;22.30;99.90
17170;DHT22;8700;48.222;16.342;2023-07-28T02:52:30;22.20;99.90
17170;DHT22;8700;48.222;16.342;2023-07-28T02:55:51;22.20;99.90
17170;DHT22;8700;48.222;16.342;2023-07-28T03:03:46;22.20;99.90
17170;DHT22;8700;48.222;16.342;2023-07-28T03:07:07;22.20;99.90
17170;DHT22;8700;48.222;16.342;2023-07-28T03:10:29;22.20;99.90
17170;DHT22;8700;48.222;16.342;2023-07-28T03:13:51;22.20;99.90
17170;DHT22;8700;48.222;16.342;2023-07-28T03:17:12;22.10;99.90
17170;DHT22;8700;48.222;16.342;2023-07-28T03:20:33;22.00;99.90
17170;DHT22;8700;48.222;16.342;2023-07-28T03:23:54;22.20;99.90
17170;DHT22;8700;48.222;16.342;2023-07-28T03:27:17;22.20;99.90
17170;DHT22;8700;48.222;16.342;2023-07-28T03:30:38;22.20;99.90
17170;DHT22;8700;48.222;16.342;2023-07-28T03:33:59;22.20;99.90
17170;DHT22;8700;48.222;16.342;2023-07-28T03:37:20;22.20;99.90
17170;DHT22;8700;48.222;16.342;2023-07-28T03:40:42;22.10;99.90
17170;DHT22;8700;48.222;16.342;2023-07-28T03:44:05;22.10;99.90
17170;DHT22;8700;48.222;16.342;2023-07-28T03:47:26;22.20;99.90
17170;DHT22;8700;48.222;16.342;2023-07-28T03:50:47;22.30;99.90
17170;DHT22;8700;48.222;16.342;2023-07-28T03:54:08;22.30;99.90
17170;DHT22;8700;48.222;16.342;2023-07-28T03:57:29;22.10;99.90
17170;DHT22;8700;48.222;16.342;2023-07-28T04:00:52;21.80;99.90
17170;DHT22;8700;48.222;16.342;2023-07-28T04:04:14;21.70;99.90
17170;DHT22;8700;48.222;16.342;2023-07-28T04:07:35;21.60;99.90
17170;DHT22;8700;48.222;16.342;2023-07-28T04:10:56;21.80;99.90
17170;DHT22;8700;48.222;16.342;2023-07-28T04:14:17;22.00;99.90
17170;DHT22;8700;48.222;16.342;2023-07-28T04:17:40;22.00;99.90
17170;DHT22;8700;48.222;16.342;2023-07-28T04:21:03;22.20;99.90
17170;DHT22;8700;48.222;16.342;2023-07-28T04:24:25;22.30;99.90
17170;DHT22;8700;48.222;16.342;2023-07-28T04:27:46;22.30;99.90
17170;DHT22;8700;48.222;16.342;2023-07-28T04:31:07;22.30;99.90
17170;DHT22;8700;48.222;16.342;2023-07-28T04:34:33;22.40;99.90
17170;DHT22;8700;48.222;16.342;2023-07-28T04:37:54;22.40;99.90
17170;DHT22;8700;48.222;16.342;2023-07-28T04:41:15;22.60;99.90
17170;DHT22;8700;48.222;16.342;2023-07-28T04:44:37;22.90;99.90
17170;DHT22;8700;48.222;16.342;2023-07-28T04:47:58;22.90;99.90
17170;DHT22;8700;48.222;16.342;2023-07-28T04:51:20;22.80;99.90
17170;DHT22;8700;48.222;16.342;2023-07-28T04:54:42;22.90;99.90
17170;DHT22;8700;48.222;16.342;2023-07-28T05:01:44;23.10;99.90
17170;DHT22;8700;48.222;16.342;2023-07-28T05:05:05;23.00;99.90
17170;DHT22;8700;48.222;16.342;2023-07-28T05:08:31;23.00;99.90
17170;DHT22;8700;48.222;16.342;2023-07-28T05:11:52;23.00;99.90
17170;DHT22;8700;48.222;16.342;2023-07-28T05:15:14;23.10;99.90
17170;DHT22;8700;48.222;16.342;2023-07-28T05:18:35;23.20;99.90
17170;DHT22;8700;48.222;16.342;2023-07-28T05:21:57;23.20;99.90
17170;DHT22;8700;48.222;16.342;2023-07-28T05:29:55;23.10;99.90
17170;DHT22;8700;48.222;16.342;2023-07-28T05:33:16;23.00;99.90
17170;DHT22;8700;48.222;16.342;2023-07-28T05:36:37;23.00;99.90
17170;DHT22;8700;48.222;16.342;2023-07-28T05:39:58;23.20;99.90
17170;DHT22;8700;48.222;16.342;2023-07-28T05:47:55;23.20;99.90
17170;DHT22;8700;48.222;16.342;2023-07-28T05:51:17;23.20;99.90
17170;DHT22;8700;48.222;16.342;2023-07-28T05:54:38;23.30;99.90
17170;DHT22;8700;48.222;16.342;2023-07-28T05:57:59;23.30;99.90
17170;DHT22;8700;48.222;16.342;2023-07-28T06:01:20;23.50;99.90
17170;DHT22;8700;48.222;16.342;2023-07-28T06:04:43;23.60;99.90
17170;DHT22;8700;48.222;16.342;2023-07-28T06:08:04;23.70;99.90
17170;DHT22;8700;48.222;16.342;2023-07-28T06:11:26;23.80;99.90
17170;DHT22;8700;48.222;16.342;2023-07-28T06:14:48;23.90;99.90
17170;DHT22;8700;48.222;16.342;2023-07-28T06:18:09;24.20;99.90
17170;DHT22;8700;48.222;16.342;2023-07-28T06:21:31;24.20;99.90
17170;DHT22;8700;48.222;16.342;2023-07-28T06:24:53;24.10;99.90
17170;DHT22;8700;48.222;16.342;2023-07-28T06:28:14;23.90;99.70
17170;DHT22;8700;48.222;16.342;2023-07-28T06:31:35;23.80;99.20
17170;DHT22;8700;48.222;16.342;2023-07-28T06:34:56;24.10;99.20
17170;DHT22;8700;48.222;16.342;2023-07-28T06:38:20;24.50;97.90
17170;DHT22;8700;48.222;16.342;2023-07-28T06:41:41;24.90;97.40
17170;DHT22;8700;48.222;16.342;2023-07-28T06:45:03;25.30;96.80
17170;DHT22;8700;48.222;16.342;2023-07-28T06:48:24;25.10;96.40
17170;DHT22;8700;48.222;16.342;2023-07-28T06:51:45;25.10;96.40
17170;DHT22;8700;48.222;16.342;2023-07-28T06:55:08;25.10;96.30
17170;DHT22;8700;48.222;16.342;2023-07-28T06:58:30;25.10;96.20
17170;DHT22;8700;48.222;16.342;2023-07-28T07:01:51;25.10;96.40
17170;DHT22;8700;48.222;16.342;2023-07-28T07:05:12;24.90;96.60
17170;DHT22;8700;48.222;16.342;2023-07-28T07:13:10;24.90;96.10
17170;DHT22;8700;48.222;16.342;2023-07-28T07:16:31;25.10;95.20
17170;DHT22;8700;48.222;16.342;2023-07-28T07:19:52;24.90;95.50
17170;DHT22;8700;48.222;16.342;2023-07-28T07:23:13;25.00;95.40
17170;DHT22;8700;48.222;16.342;2023-07-28T07:26:35;25.10;95.00
17170;DHT22;8700;48.222;16.342;2023-07-28T07:29:57;25.00;94.90
17170;DHT22;8700;48.222;16.342;2023-07-28T07:33:19;25.10;94.80
17170;DHT22;8700;48.222;16.342;2023-07-28T07:36:39;25.30;94.60
17170;DHT22;8700;48.222;16.342;2023-07-28T07:40:01;25.60;94.20
17170;DHT22;8700;48.222;16.342;2023-07-28T07:47:59;25.80;93.80
17170;DHT22;8700;48.222;16.342;2023-07-28T07:51:20;26.00;93.70
17170;DHT22;8700;48.222;16.342;2023-07-28T07:54:41;27.10;92.80
17170;DHT22;8700;48.222;16.342;2023-07-28T07:58:03;29.10;91.00
17170;DHT22;8700;48.222;16.342;2023-07-28T08:01:24;31.20;84.60
17170;DHT22;8700;48.222;16.342;2023-07-28T08:04:47;32.00;78.70
17170;DHT22;8700;48.222;16.342;2023-07-28T08:08:08;33.00;74.80
17170;DHT22;8700;48.222;16.342;2023-07-28T08:11:29;34.00;69.80
17170;DHT22;8700;48.222;16.342;2023-07-28T08:14:51;35.00;66.80
17170;DHT22;8700;48.222;16.342;2023-07-28T08:18:12;34.10;66.80
17170;DHT22;8700;48.222;16.342;2023-07-28T08:21:35;33.80;65.60
17170;DHT22;8700;48.222;16.342;2023-07-28T08:24:56;33.80;64.90
17170;DHT22;8700;48.222;16.342;2023-07-28T08:28:18;33.80;65.90
17170;DHT22;8700;48.222;16.342;2023-07-28T08:31:39;34.70;64.50
17170;DHT22;8700;48.222;16.342;2023-07-28T08:39:34;35.20;62.40
17170;DHT22;8700;48.222;16.342;2023-07-28T08:47:40;34.50;62.30
17170;DHT22;8700;48.222;16.342;2023-07-28T08:51:02;33.80;62.60
17170;DHT22;8700;48.222;16.342;2023-07-28T08:54:24;35.20;61.20
17170;DHT22;8700;48.222;16.342;2023-07-28T08:57:48;36.30;60.50
17170;DHT22;8700;48.222;16.342;2023-07-28T09:01:12;35.50;59.60
17170;DHT22;8700;48.222;16.342;2023-07-28T09:04:33;35.20;61.00
17170;DHT22;8700;48.222;16.342;2023-07-28T09:07:58;36.60;58.90
17170;DHT22;8700;48.222;16.342;2023-07-28T09:15:52;37.20;57.10
17170;DHT22;8700;48.222;16.342;2023-07-28T09:19:14;35.40;58.50
17170;DHT22;8700;48.222;16.342;2023-07-28T09:22:36;35.00;59.00
17170;DHT22;8700;48.222;16.342;2023-07-28T09:26:01;34.40;59.40
17170;DHT22;8700;48.222;16.342;2023-07-28T09:29:24;33.70;60.10
17170;DHT22;8700;48.222;16.342;2023-07-28T09:32:50;35.50;58.90
17170;DHT22;8700;48.222;16.342;2023-07-28T09:36:13;34.80;58.70
17170;DHT22;8700;48.222;16.342;2023-07-28T09:39:36;35.50;58.60
17170;DHT22;8700;48.222;16.342;2023-07-28T09:42:58;36.80;57.00
17170;DHT22;8700;48.222;16.342;2023-07-28T09:46:20;37.30;56.50
17170;DHT22;8700;48.222;16.342;2023-07-28T09:49:46;36.90;56.50
17170;DHT22;8700;48.222;16.342;2023-07-28T09:53:11;35.60;57.50
17170;DHT22;8700;48.222;16.342;2023-07-28T09:56:36;37.10;56.50
17170;DHT22;8700;48.222;16.342;2023-07-28T09:59:59;36.90;56.10
17170;DHT22;8700;48.222;16.342;2023-07-28T10:03:21;37.90;55.60
17170;DHT22;8700;48.222;16.342;2023-07-28T10:06:48;38.20;54.40
17170;DHT22;8700;48.222;16.342;2023-07-28T10:10:11;38.10;54.40
17170;DHT22;8700;48.222;16.342;2023-07-28T10:13:40;38.10;54.60
17170;DHT22;8700;48.222;16.342;2023-07-28T10:17:04;37.00;55.50
17170;DHT22;8700;48.222;16.342;2023-07-28T10:20:30;37.50;54.80
17170;DHT22;8700;48.222;16.342;2023-07-28T10:23:56;38.40;54.40
17170;DHT22;8700;48.222;16.342;2023-07-28T10:31:50;35.90;55.60
17170;DHT22;8700;48.222;16.342;2023-07-28T10:35:23;36.50;55.90
17170;DHT22;8700;48.222;16.342;2023-07-28T10:38:44;36.80;55.20
17170;DHT22;8700;48.222;16.342;2023-07-28T10:42:08;35.70;56.60
17170;DHT22;8700;48.222;16.342;2023-07-28T10:45:31;36.00;56.60
17170;DHT22;8700;48.222;16.342;2023-07-28T10:48:53;36.30;55.90
17170;DHT22;8700;48.222;16.342;2023-07-28T10:52:16;34.90;57.00
17170;DHT22;8700;48.222;16.342;2023-07-28T10:55:37;34.80;57.90
17170;DHT22;8700;48.222;16.342;2023-07-28T10:59:07;34.80;57.90
17170;DHT22;8700;48.222;16.342;2023-07-28T11:02:31;33.90;58.70
17170;DHT22;8700;48.222;16.342;2023-07-28T11:05:54;33.70;58.80
17170;DHT22;8700;48.222;16.342;2023-07-28T11:09:17;33.40;59.70
17170;DHT22;8700;48.222;16.342;2023-07-28T11:12:40;34.20;59.00
17170;DHT22;8700;48.222;16.342;2023-07-28T11:16:04;34.60;59.30
17170;DHT22;8700;48.222;16.342;2023-07-28T11:19:25;34.90;58.70
17170;DHT22;8700;48.222;16.342;2023-07-28T11:22:53;33.70;60.20
17170;DHT22;8700;48.222;16.342;2023-07-28T11:26:17;34.20;60.20
17170;DHT22;8700;48.222;16.342;2023-07-28T11:29:40;35.50;58.80
17170;DHT22;8700;48.222;16.342;2023-07-28T11:33:03;35.50;58.50
17170;DHT22;8700;48.222;16.342;2023-07-28T11:36:26;34.80;58.90
17170;DHT22;8700;48.222;16.342;2023-07-28T11:39:48;35.20;58.80
17170;DHT22;8700;48.222;16.342;2023-07-28T11:43:10;35.30;58.40
17170;DHT22;8700;48.222;16.342;2023-07-28T11:46:35;34.70;58.80
17170;DHT22;8700;48.222;16.342;2023-07-28T11:49:59;34.10;58.90
17170;DHT22;8700;48.222;16.342;2023-07-28T11:53:20;33.40;60.30
17170;DHT22;8700;48.222;16.342;2023-07-28T11:56:44;33.50;60.70
17170;DHT22;8700;48.222;16.342;2023-07-28T12:00:07;34.10;58.90
17170;DHT22;8700;48.222;16.342;2023-07-28T12:03:30;33.20;58.10
17170;DHT22;8700;48.222;16.342;2023-07-28T12:07:05;32.50;59.30
17170;DHT22;8700;48.222;16.342;2023-07-28T12:10:27;31.90;59.60
17170;DHT22;8700;48.222;16.342;2023-07-28T12:13:49;31.70;60.70
17170;DHT22;8700;48.222;16.342;2023-07-28T12:17:13;31.90;61.20
17170;DHT22;8700;48.222;16.342;2023-07-28T12:20:38;32.50;61.10
17170;DHT22;8700;48.222;16.342;2023-07-28T12:24:02;32.90;61.20
17170;DHT22;8700;48.222;16.342;2023-07-28T12:27:23;32.70;61.30
17170;DHT22;8700;48.222;16.342;2023-07-28T12:30:46;32.50;62.20
17170;DHT22;8700;48.222;16.342;2023-07-28T12:34:11;32.90;62.10
17170;DHT22;8700;48.222;16.342;2023-07-28T12:37:33;33.40;61.40
17170;DHT22;8700;48.222;16.342;2023-07-28T12:40:56;33.90;60.80
17170;DHT22;8700;48.222;16.342;2023-07-28T12:44:19;33.90;61.00
17170;DHT22;8700;48.222;16.342;2023-07-28T12:47:42;34.00;61.50
17170;DHT22;8700;48.222;16.342;2023-07-28T12:51:05;32.50;63.00
17170;DHT22;8700;48.222;16.342;2023-07-28T12:54:27;32.00;64.10
17170;DHT22;8700;48.222;16.342;2023-07-28T13:02:22;31.80;65.20
17170;DHT22;8700;48.222;16.342;2023-07-28T13:05:44;31.50;66.10
17170;DHT22;8700;48.222;16.342;2023-07-28T13:09:26;31.30;66.50
17170;DHT22;8700;48.222;16.342;2023-07-28T13:12:49;30.90;67.30
17170;DHT22;8700;48.222;16.342;2023-07-28T13:16:11;30.80;67.70
17170;DHT22;8700;48.222;16.342;2023-07-28T13:19:34;31.00;66.90
17170;DHT22;8700;48.222;16.342;2023-07-28T13:22:55;30.80;66.20
17170;DHT22;8700;48.222;16.342;2023-07-28T13:26:16;30.50;66.70
17170;DHT22;8700;48.222;16.342;2023-07-28T13:29:37;29.90;68.90
17170;DHT22;8700;48.222;16.342;2023-07-28T13:32:59;30.00;69.80
17170;DHT22;8700;48.222;16.342;2023-07-28T13:36:22;30.40;69.50
17170;DHT22;8700;48.222;16.342;2023-07-28T13:39:43;30.60;70.60
17170;DHT22;8700;48.222;16.342;2023-07-28T13:43:04;31.00;69.30
17170;DHT22;8700;48.222;16.342;2023-07-28T13:46:26;30.90;69.30
17170;DHT22;8700;48.222;16.342;2023-07-28T13:49:47;31.00;69.20
17170;DHT22;8700;48.222;16.342;2023-07-28T13:53:10;30.90;69.20
17170;DHT22;8700;48.222;16.342;2023-07-28T13:56:31;31.10;69.50
17170;DHT22;8700;48.222;16.342;2023-07-28T13:59:52;31.50;68.70
17170;DHT22;8700;48.222;16.342;2023-07-28T14:03:13;31.90;68.10
17170;DHT22;8700;48.222;16.342;2023-07-28T14:06:36;31.80;68.20
17170;DHT22;8700;48.222;16.342;2023-07-28T14:09:58;31.70;68.30
17170;DHT22;8700;48.222;16.342;2023-07-28T14:13:20;31.80;67.90
17170;DHT22;8700;48.222;16.342;2023-07-28T14:16:41;31.10;68.40
17170;DHT22;8700;48.222;16.342;2023-07-28T14:20:04;31.00;69.40
17170;DHT22;8700;48.222;16.342;2023-07-28T14:23:27;31.40;68.70
17170;DHT22;8700;48.222;16.342;2023-07-28T14:26:50;31.00;69.40
17170;DHT22;8700;48.222;16.342;2023-07-28T14:30:11;30.30;70.00
17170;DHT22;8700;48.222;16.342;2023-07-28T14:33:33;29.70;71.20
17170;DHT22;8700;48.222;16.342;2023-07-28T14:36:54;30.00;70.90
17170;DHT22;8700;48.222;16.342;2023-07-28T14:40:15;30.00;70.50
17170;DHT22;8700;48.222;16.342;2023-07-28T14:43:38;29.40;71.60
17170;DHT22;8700;48.222;16.342;2023-07-28T14:46:59;29.40;71.80
17170;DHT22;8700;48.222;16.342;2023-07-28T14:50:21;29.60;71.80
17170;DHT22;8700;48.222;16.342;2023-07-28T14:53:42;29.50;72.10
17170;DHT22;8700;48.222;16.342;2023-07-28T14:57:05;29.50;72.60
17170;DHT22;8700;48.222;16.342;2023-07-28T15:00:29;30.00;72.10
17170;DHT22;8700;48.222;16.342;2023-07-28T15:03:50;29.50;72.90
17170;DHT22;8700;48.222;16.342;2023-07-28T15:07:11;29.30;73.10
17170;DHT22;8700;48.222;16.342;2023-07-28T15:10:33;29.50;73.30
17170;DHT22;8700;48.222;16.342;2023-07-28T15:13:54;29.30;73.90
17170;DHT22;8700;48.222;16.342;2023-07-28T15:17:17;29.70;73.80
17170;DHT22;8700;48.222;16.342;2023-07-28T15:20:41;29.60;73.70
17170;DHT22;8700;48.222;16.342;2023-07-28T15:24:03;29.50;74.00
17170;DHT22;8700;48.222;16.342;2023-07-28T15:27:24;29.30;75.00
17170;DHT22;8700;48.222;16.342;2023-07-28T15:30:45;29.40;75.20
17170;DHT22;8700;48.222;16.342;2023-07-28T15:34:11;29.40;75.30
17170;DHT22;8700;48.222;16.342;2023-07-28T15:37:32;29.50;75.30
17170;DHT22;8700;48.222;16.342;2023-07-28T15:40:54;29.10;76.10
17170;DHT22;8700;48.222;16.342;2023-07-28T15:44:17;29.70;75.60
17170;DHT22;8700;48.222;16.342;2023-07-28T15:47:38;29.80;75.60
17170;DHT22;8700;48.222;16.342;2023-07-28T15:51:01;30.00;75.40
17170;DHT22;8700;48.222;16.342;2023-07-28T15:54:24;29.70;76.00
17170;DHT22;8700;48.222;16.342;2023-07-28T16:16:05;30.10;74.60
17170;DHT22;8700;48.222;16.342;2023-07-28T16:19:27;30.20;75.00
17170;DHT22;8700;48.222;16.342;2023-07-28T16:22:48;29.80;74.80
17170;DHT22;8700;48.222;16.342;2023-07-28T16:26:09;29.50;75.60
17170;DHT22;8700;48.222;16.342;2023-07-28T16:29:30;29.40;76.30
17170;DHT22;8700;48.222;16.342;2023-07-28T16:32:53;29.80;75.80
17170;DHT22;8700;48.222;16.342;2023-07-28T16:36:14;30.00;75.60
17170;DHT22;8700;48.222;16.342;2023-07-28T16:39:36;30.20;76.00
17170;DHT22;8700;48.222;16.342;2023-07-28T16:42:57;30.20;75.20
17170;DHT22;8700;48.222;16.342;2023-07-28T16:46:18;30.10;75.40
17170;DHT22;8700;48.222;16.342;2023-07-28T16:49:40;30.10;75.70
17170;DHT22;8700;48.222;16.342;2023-07-28T16:53:02;30.10;75.70
17170;DHT22;8700;48.222;16.342;2023-07-28T16:56:23;29.90;76.30
17170;DHT22;8700;48.222;16.342;2023-07-28T16:59:44;29.80;76.60
17170;DHT22;8700;48.222;16.342;2023-07-28T17:03:06;29.60;77.20
17170;DHT22;8700;48.222;16.342;2023-07-28T17:06:29;29.50;77.50
17170;DHT22;8700;48.222;16.342;2023-07-28T17:09:50;29.10;78.60
17170;DHT22;8700;48.222;16.342;2023-07-28T17:13:11;28.80;79.40
17170;DHT22;8700;48.222;16.342;2023-07-28T17:16:32;28.80;79.40
17170;DHT22;8700;48.222;16.342;2023-07-28T17:19:54;28.80;79.70
17170;DHT22;8700;48.222;16.342;2023-07-28T17:23:16;28.90;79.70
17170;DHT22;8700;48.222;16.342;2023-07-28T17:31:09;28.30;81.30
17170;DHT22;8700;48.222;16.342;2023-07-28T17:34:31;28.20;81.70
17170;DHT22;8700;48.222;16.342;2023-07-28T17:37:52;28.20;81.80
17170;DHT22;8700;48.222;16.342;2023-07-28T17:41:14;28.10;82.50
17170;DHT22;8700;48.222;16.342;2023-07-28T17:44:35;27.90;83.20
17170;DHT22;8700;48.222;16.342;2023-07-28T17:47:57;28.00;83.60
17170;DHT22;8700;48.222;16.342;2023-07-28T17:51:18;28.10;83.60
17170;DHT22;8700;48.222;16.342;2023-07-28T17:54:40;28.00;83.60
17170;DHT22;8700;48.222;16.342;2023-07-28T17:58:02;27.90;84.40
17170;DHT22;8700;48.222;16.342;2023-07-28T18:01:24;27.80;84.90
17170;DHT22;8700;48.222;16.342;2023-07-28T18:04:45;27.80;85.40
17170;DHT22;8700;48.222;16.342;2023-07-28T18:08:06;27.90;85.40
17170;DHT22;8700;48.222;16.342;2023-07-28T18:11:31;28.10;85.30
17170;DHT22;8700;48.222;16.342;2023-07-28T18:14:54;28.00;85.30
17170;DHT22;8700;48.222;16.342;2023-07-28T18:18:15;27.90;85.70
17170;DHT22;8700;48.222;16.342;2023-07-28T18:21:36;27.90;85.80
17170;DHT22;8700;48.222;16.342;2023-07-28T18:24:58;27.60;86.50
17170;DHT22;8700;48.222;16.342;2023-07-28T18:28:19;27.40;87.90
17170;DHT22;8700;48.222;16.342;2023-07-28T18:31:42;27.30;88.20
17170;DHT22;8700;48.222;16.342;2023-07-28T18:35:05;27.30;88.40
17170;DHT22;8700;48.222;16.342;2023-07-28T18:38:26;27.40;88.60
17170;DHT22;8700;48.222;16.342;2023-07-28T18:41:47;27.40;89.10
17170;DHT22;8700;48.222;16.342;2023-07-28T18:45:10;27.30;89.80
17170;DHT22;8700;48.222;16.342;2023-07-28T18:48:38;26.90;90.30
17170;DHT22;8700;48.222;16.342;2023-07-28T18:52:03;26.70;90.80
17170;DHT22;8700;48.222;16.342;2023-07-28T18:55:25;26.80;90.90
17170;DHT22;8700;48.222;16.342;2023-07-28T18:58:47;26.90;90.90
17170;DHT22;8700;48.222;16.342;2023-07-28T19:02:08;27.10;90.80
17170;DHT22;8700;48.222;16.342;2023-07-28T19:05:31;27.10;91.00
17170;DHT22;8700;48.222;16.342;2023-07-28T19:08:54;27.10;91.10
17170;DHT22;8700;48.222;16.342;2023-07-28T19:12:16;27.10;91.40
17170;DHT22;8700;48.222;16.342;2023-07-28T19:15:37;26.90;91.80
17170;DHT22;8700;48.222;16.342;2023-07-28T19:18:59;26.80;92.00
17170;DHT22;8700;48.222;16.342;2023-07-28T19:22:22;26.60;92.40
17170;DHT22;8700;48.222;16.342;2023-07-28T19:25:43;26.20;93.10
17170;DHT22;8700;48.222;16.342;2023-07-28T19:29:06;26.00;93.80
17170;DHT22;8700;48.222;16.342;2023-07-28T19:32:28;25.90;94.50
17170;DHT22;8700;48.222;16.342;2023-07-28T19:35:53;25.90;94.80
17170;DHT22;8700;48.222;16.342;2023-07-28T19:39:16;26.10;95.10
17170;DHT22;8700;48.222;16.342;2023-07-28T19:42:37;25.90;95.40
17170;DHT22;8700;48.222;16.342;2023-07-28T19:45:59;25.80;96.30
17170;DHT22;8700;48.222;16.342;2023-07-28T19:49:24;25.70;96.60
17170;DHT22;8700;48.222;16.342;2023-07-28T19:52:46;25.60;97.10
17170;DHT22;8700;48.222;16.342;2023-07-28T19:56:08;25.50;97.80
17170;DHT22;8700;48.222;16.342;2023-07-28T19:59:30;25.40;98.30
17170;DHT22;8700;48.222;16.342;2023-07-28T20:02:54;25.60;98.50
17170;DHT22;8700;48.222;16.342;2023-07-28T20:06:17;25.60;98.80
17170;DHT22;8700;48.222;16.342;2023-07-28T20:09:39;25.60;98.90
17170;DHT22;8700;48.222;16.342;2023-07-28T20:13:02;25.30;99.40
17170;DHT22;8700;48.222;16.342;2023-07-28T20:16:24;25.30;99.90
17170;DHT22;8700;48.222;16.342;2023-07-28T20:19:46;25.30;99.90
17170;DHT22;8700;48.222;16.342;2023-07-28T20:23:09;25.30;99.90
17170;DHT22;8700;48.222;16.342;2023-07-28T20:26:31;25.40;99.90
17170;DHT22;8700;48.222;16.342;2023-07-28T20:29:54;25.30;99.90
17170;DHT22;8700;48.222;16.342;2023-07-28T20:33:18;25.10;99.90
17170;DHT22;8700;48.222;16.342;2023-07-28T20:36:41;25.00;99.90
17170;DHT22;8700;48.222;16.342;2023-07-28T20:40:02;25.00;99.90
17170;DHT22;8700;48.222;16.342;2023-07-28T20:43:24;25.00;99.90
17170;DHT22;8700;48.222;16.342;2023-07-28T20:46:46;24.90;99.90
17170;DHT22;8700;48.222;16.342;2023-07-28T20:50:08;25.00;99.90
17170;DHT22;8700;48.222;16.342;2023-07-28T20:53:29;24.90;99.90
17170;DHT22;8700;48.222;16.342;2023-07-28T20:56:52;24.90;99.90
17170;DHT22;8700;48.222;16.342;2023-07-28T21:00:15;25.00;99.90
17170;DHT22;8700;48.222;16.342;2023-07-28T21:03:37;25.00;99.90
17170;DHT22;8700;48.222;16.342;2023-07-28T21:06:59;24.90;99.90
17170;DHT22;8700;48.222;16.342;2023-07-28T21:10:21;24.80;99.90
17170;DHT22;8700;48.222;16.342;2023-07-28T21:13:42;24.80;99.90
17170;DHT22;8700;48.222;16.342;2023-07-28T21:17:04;24.80;99.90
17170;DHT22;8700;48.222;16.342;2023-07-28T21:20:26;24.80;99.90
17170;DHT22;8700;48.222;16.342;2023-07-28T21:23:48;25.00;99.90
17170;DHT22;8700;48.222;16.342;2023-07-28T21:27:09;25.10;99.90
17170;DHT22;8700;48.222;16.342;2023-07-28T21:30:30;25.10;99.90
17170;DHT22;8700;48.222;16.342;2023-07-28T21:33:52;24.80;99.90
17170;DHT22;8700;48.222;16.342;2023-07-28T21:37:17;24.70;99.90
17170;DHT22;8700;48.222;16.342;2023-07-28T21:40:38;24.70;99.90
17170;DHT22;8700;48.222;16.342;2023-07-28T21:44:01;24.80;99.90
17170;DHT22;8700;48.222;16.342;2023-07-28T21:47:22;25.00;99.90
17170;DHT22;8700;48.222;16.342;2023-07-28T21:50:45;25.00;99.90
17170;DHT22;8700;48.222;16.342;2023-07-28T21:54:08;25.10;99.90
17170;DHT22;8700;48.222;16.342;2023-07-28T21:57:29;25.00;99.90
17170;DHT22;8700;48.222;16.342;2023-07-28T22:00:50;25.00;99.90
17170;DHT22;8700;48.222;16.342;2023-07-28T22:04:11;25.00;99.90
17170;DHT22;8700;48.222;16.342;2023-07-28T22:07:33;24.90;99.90
17170;DHT22;8700;48.222;16.342;2023-07-28T22:10:56;24.90;99.90
17170;DHT22;8700;48.222;16.342;2023-07-28T22:14:17;24.80;99.90
17170;DHT22;8700;48.222;16.342;2023-07-28T22:17:40;24.70;99.90
17170;DHT22;8700;48.222;16.342;2023-07-28T22:21:01;24.60;99.90
17170;DHT22;8700;48.222;16.342;2023-07-28T22:24:22;24.50;99.90
17170;DHT22;8700;48.222;16.342;2023-07-28T22:27:45;24.50;99.90
17170;DHT22;8700;48.222;16.342;2023-07-28T22:31:06;24.40;99.90
17170;DHT22;8700;48.222;16.342;2023-07-28T22:34:28;24.50;99.90
17170;DHT22;8700;48.222;16.342;2023-07-28T22:37:49;24.40;99.90
17170;DHT22;8700;48.222;16.342;2023-07-28T22:41:10;24.30;99.90